sensor_id;sensor_type;location;lat;lon;timestamp;P1;durP1;ratioP1;P2;durP2;ratioP2
72761;SDS011;60886;55.034;73.150;2023-04-03T00:02:52;8.73;;;2.80;;
72761;SDS011;60886;55.034;73.150;2023-04-03T00:05:58;12.82;;;3.13;;
72761;SDS011;60886;55.034;73.150;2023-04-03T00:09:00;8.63;;;2.75;;
72761;SDS011;60886;55.034;73.150;2023-04-03T00:12:02;8.97;;;2.80;;
72761;SDS011;60886;55.034;73.150;2023-04-03T00:15:13;9.70;;;2.92;;
72761;SDS011;60886;55.034;73.150;2023-04-03T00:18:16;9.27;;;2.95;;
72761;SDS011;60886;55.034;73.150;2023-04-03T00:21:18;9.97;;;2.90;;
72761;SDS011;60886;55.034;73.150;2023-04-03T00:24:26;10.85;;;3.00;;
72761;SDS011;60886;55.034;73.150;2023-04-03T00:27:28;8.23;;;2.53;;
72761;SDS011;60886;55.034;73.150;2023-04-03T00:30:34;9.83;;;2.90;;
72761;SDS011;60886;55.034;73.150;2023-04-03T00:33:42;9.27;;;2.85;;
72761;SDS011;60886;55.034;73.150;2023-04-03T00:36:53;10.10;;;2.75;;
72761;SDS011;60886;55.034;73.150;2023-04-03T00:39:56;10.50;;;2.73;;
72761;SDS011;60886;55.034;73.150;2023-04-03T00:42:58;8.00;;;2.30;;
72761;SDS011;60886;55.034;73.150;2023-04-03T00:46:05;10.30;;;2.80;;
72761;SDS011;60886;55.034;73.150;2023-04-03T00:49:11;8.88;;;2.80;;
72761;SDS011;60886;55.034;73.150;2023-04-03T00:52:23;10.70;;;2.90;;
72761;SDS011;60886;55.034;73.150;2023-04-03T00:55:38;9.10;;;3.10;;
72761;SDS011;60886;55.034;73.150;2023-04-03T00:58:45;10.65;;;2.90;;
72761;SDS011;60886;55.034;73.150;2023-04-03T01:01:51;10.80;;;2.70;;
72761;SDS011;60886;55.034;73.150;2023-04-03T01:04:55;9.10;;;2.92;;
72761;SDS011;60886;55.034;73.150;2023-04-03T01:07:57;10.05;;;3.20;;
72761;SDS011;60886;55.034;73.150;2023-04-03T01:10:59;11.17;;;3.07;;
72761;SDS011;60886;55.034;73.150;2023-04-03T01:14:01;13.35;;;3.00;;
72761;SDS011;60886;55.034;73.150;2023-04-03T01:17:21;11.17;;;3.10;;
72761;SDS011;60886;55.034;73.150;2023-04-03T01:26:48;10.82;;;2.97;;
72761;SDS011;60886;55.034;73.150;2023-04-03T01:29:51;10.38;;;3.45;;
72761;SDS011;60886;55.034;73.150;2023-04-03T01:32:52;17.90;;;3.65;;
72761;SDS011;60886;55.034;73.150;2023-04-03T01:35:54;10.00;;;3.20;;
72761;SDS011;60886;55.034;73.150;2023-04-03T01:38:57;9.90;;;3.55;;
72761;SDS011;60886;55.034;73.150;2023-04-03T01:42:00;10.57;;;3.83;;
72761;SDS011;60886;55.034;73.150;2023-04-03T01:45:13;12.18;;;3.83;;
72761;SDS011;60886;55.034;73.150;2023-04-03T01:48:15;10.25;;;3.15;;
72761;SDS011;60886;55.034;73.150;2023-04-03T01:51:17;10.03;;;3.30;;
72761;SDS011;60886;55.034;73.150;2023-04-03T01:54:18;9.88;;;3.30;;
72761;SDS011;60886;55.034;73.150;2023-04-03T01:57:22;9.63;;;2.70;;
72761;SDS011;60886;55.034;73.150;2023-04-03T02:00:29;17.00;;;3.17;;
72761;SDS011;60886;55.034;73.150;2023-04-03T02:03:30;11.80;;;3.30;;
72761;SDS011;60886;55.034;73.150;2023-04-03T02:06:37;17.05;;;3.15;;
72761;SDS011;60886;55.034;73.150;2023-04-03T02:09:40;10.50;;;3.10;;
72761;SDS011;60886;55.034;73.150;2023-04-03T02:12:43;11.65;;;3.03;;
72761;SDS011;60886;55.034;73.150;2023-04-03T02:15:46;8.70;;;2.60;;
72761;SDS011;60886;55.034;73.150;2023-04-03T02:18:55;13.82;;;3.20;;
72761;SDS011;60886;55.034;73.150;2023-04-03T02:21:57;11.98;;;3.10;;
72761;SDS011;60886;55.034;73.150;2023-04-03T02:24:59;10.37;;;3.50;;
72761;SDS011;60886;55.034;73.150;2023-04-03T02:28:01;12.07;;;3.53;;
72761;SDS011;60886;55.034;73.150;2023-04-03T02:31:03;14.73;;;4.33;;
72761;SDS011;60886;55.034;73.150;2023-04-03T02:34:07;17.52;;;4.32;;
72761;SDS011;60886;55.034;73.150;2023-04-03T02:37:10;12.67;;;3.70;;
72761;SDS011;60886;55.034;73.150;2023-04-03T02:40:22;15.00;;;3.70;;
72761;SDS011;60886;55.034;73.150;2023-04-03T02:43:24;8.23;;;2.70;;
72761;SDS011;60886;55.034;73.150;2023-04-03T02:46:32;11.02;;;2.85;;
72761;SDS011;60886;55.034;73.150;2023-04-03T02:49:34;9.20;;;2.63;;
72761;SDS011;60886;55.034;73.150;2023-04-03T02:52:35;9.60;;;2.67;;
72761;SDS011;60886;55.034;73.150;2023-04-03T02:55:47;10.57;;;2.03;;
72761;SDS011;60886;55.034;73.150;2023-04-03T02:58:48;7.22;;;2.20;;
72761;SDS011;60886;55.034;73.150;2023-04-03T03:01:51;11.20;;;2.20;;
72761;SDS011;60886;55.034;73.150;2023-04-03T03:04:54;8.45;;;2.35;;
72761;SDS011;60886;55.034;73.150;2023-04-03T03:07:56;8.77;;;2.17;;
72761;SDS011;60886;55.034;73.150;2023-04-03T03:10:58;8.00;;;2.30;;
72761;SDS011;60886;55.034;73.150;2023-04-03T03:13:59;8.90;;;2.20;;
72761;SDS011;60886;55.034;73.150;2023-04-03T03:17:01;9.20;;;2.17;;
72761;SDS011;60886;55.034;73.150;2023-04-03T03:20:03;9.13;;;2.17;;
72761;SDS011;60886;55.034;73.150;2023-04-03T03:23:06;7.75;;;2.08;;
72761;SDS011;60886;55.034;73.150;2023-04-03T03:26:09;6.85;;;2.17;;
72761;SDS011;60886;55.034;73.150;2023-04-03T03:29:22;7.43;;;1.93;;
72761;SDS011;60886;55.034;73.150;2023-04-03T03:32:23;8.00;;;2.05;;
72761;SDS011;60886;55.034;73.150;2023-04-03T03:35:25;7.80;;;2.13;;
72761;SDS011;60886;55.034;73.150;2023-04-03T03:38:26;8.30;;;1.90;;
72761;SDS011;60886;55.034;73.150;2023-04-03T03:41:30;10.20;;;1.90;;
72761;SDS011;60886;55.034;73.150;2023-04-03T03:44:32;7.93;;;1.83;;
72761;SDS011;60886;55.034;73.150;2023-04-03T03:47:33;6.63;;;1.88;;
72761;SDS011;60886;55.034;73.150;2023-04-03T03:50:35;7.85;;;1.80;;
72761;SDS011;60886;55.034;73.150;2023-04-03T03:53:36;6.40;;;1.80;;
72761;SDS011;60886;55.034;73.150;2023-04-03T03:56:43;6.13;;;1.57;;
72761;SDS011;60886;55.034;73.150;2023-04-03T03:59:45;7.75;;;1.60;;
72761;SDS011;60886;55.034;73.150;2023-04-03T04:02:47;7.22;;;1.70;;
72761;SDS011;60886;55.034;73.150;2023-04-03T04:05:53;9.40;;;1.90;;
72761;SDS011;60886;55.034;73.150;2023-04-03T04:08:59;7.00;;;1.90;;
72761;SDS011;60886;55.034;73.150;2023-04-03T04:12:01;5.77;;;1.87;;
72761;SDS011;60886;55.034;73.150;2023-04-03T04:15:13;9.94;;;2.20;;
72761;SDS011;60886;55.034;73.150;2023-04-03T04:18:15;6.82;;;2.35;;
72761;SDS011;60886;55.034;73.150;2023-04-03T04:21:28;8.67;;;2.67;;
72761;SDS011;60886;55.034;73.150;2023-04-03T04:24:31;8.55;;;2.20;;
72761;SDS011;60886;55.034;73.150;2023-04-03T04:27:33;10.10;;;2.53;;
72761;SDS011;60886;55.034;73.150;2023-04-03T04:30:35;7.73;;;2.10;;
72761;SDS011;60886;55.034;73.150;2023-04-03T04:33:37;11.07;;;2.40;;
72761;SDS011;60886;55.034;73.150;2023-04-03T04:36:40;9.37;;;2.40;;
72761;SDS011;60886;55.034;73.150;2023-04-03T04:39:41;9.07;;;3.08;;
72761;SDS011;60886;55.034;73.150;2023-04-03T04:42:43;8.27;;;2.30;;
72761;SDS011;60886;55.034;73.150;2023-04-03T04:45:59;11.38;;;2.80;;
72761;SDS011;60886;55.034;73.150;2023-04-03T04:49:12;6.47;;;2.20;;
72761;SDS011;60886;55.034;73.150;2023-04-03T04:52:14;7.80;;;2.30;;
72761;SDS011;60886;55.034;73.150;2023-04-03T04:55:16;7.50;;;2.26;;
72761;SDS011;60886;55.034;73.150;2023-04-03T04:58:17;7.72;;;2.38;;
72761;SDS011;60886;55.034;73.150;2023-04-03T05:01:19;7.97;;;2.50;;
72761;SDS011;60886;55.034;73.150;2023-04-03T05:04:47;8.15;;;2.20;;
72761;SDS011;60886;55.034;73.150;2023-04-03T05:07:55;8.25;;;2.53;;
72761;SDS011;60886;55.034;73.150;2023-04-03T05:10:57;9.68;;;2.42;;
72761;SDS011;60886;55.034;73.150;2023-04-03T05:14:05;8.90;;;2.70;;
72761;SDS011;60886;55.034;73.150;2023-04-03T05:17:08;7.97;;;2.45;;
72761;SDS011;60886;55.034;73.150;2023-04-03T05:20:13;6.32;;;2.10;;
72761;SDS011;60886;55.034;73.150;2023-04-03T05:23:17;8.37;;;2.50;;
72761;SDS011;60886;55.034;73.150;2023-04-03T05:26:19;7.05;;;2.50;;
72761;SDS011;60886;55.034;73.150;2023-04-03T05:29:25;9.33;;;2.40;;
72761;SDS011;60886;55.034;73.150;2023-04-03T05:32:26;9.80;;;2.55;;
72761;SDS011;60886;55.034;73.150;2023-04-03T05:35:40;7.50;;;2.30;;
72761;SDS011;60886;55.034;73.150;2023-04-03T05:38:51;7.30;;;2.22;;
72761;SDS011;60886;55.034;73.150;2023-04-03T05:41:53;8.38;;;2.13;;
72761;SDS011;60886;55.034;73.150;2023-04-03T05:44:55;9.50;;;2.50;;
72761;SDS011;60886;55.034;73.150;2023-04-03T05:47:56;9.65;;;2.45;;
72761;SDS011;60886;55.034;73.150;2023-04-03T05:50:58;6.73;;;2.10;;
72761;SDS011;60886;55.034;73.150;2023-04-03T05:54:03;7.82;;;2.30;;
72761;SDS011;60886;55.034;73.150;2023-04-03T05:57:10;8.97;;;2.10;;
72761;SDS011;60886;55.034;73.150;2023-04-03T06:00:18;8.80;;;2.58;;
72761;SDS011;60886;55.034;73.150;2023-04-03T06:03:29;9.67;;;2.80;;
72761;SDS011;60886;55.034;73.150;2023-04-03T06:06:43;8.85;;;2.20;;
72761;SDS011;60886;55.034;73.150;2023-04-03T06:09:47;9.50;;;2.78;;
72761;SDS011;60886;55.034;73.150;2023-04-03T06:12:59;8.60;;;2.40;;
72761;SDS011;60886;55.034;73.150;2023-04-03T06:16:00;7.77;;;2.30;;
72761;SDS011;60886;55.034;73.150;2023-04-03T06:19:03;7.20;;;2.30;;
72761;SDS011;60886;55.034;73.150;2023-04-03T06:22:06;9.20;;;2.67;;
72761;SDS011;60886;55.034;73.150;2023-04-03T06:25:14;10.38;;;2.95;;
72761;SDS011;60886;55.034;73.150;2023-04-03T06:28:18;7.83;;;2.43;;
72761;SDS011;60886;55.034;73.150;2023-04-03T06:31:20;9.13;;;2.60;;
72761;SDS011;60886;55.034;73.150;2023-04-03T06:34:21;7.77;;;2.30;;
72761;SDS011;60886;55.034;73.150;2023-04-03T06:37:22;7.50;;;1.87;;
72761;SDS011;60886;55.034;73.150;2023-04-03T06:40:26;11.32;;;2.15;;
72761;SDS011;60886;55.034;73.150;2023-04-03T06:43:28;8.93;;;2.70;;
72761;SDS011;60886;55.034;73.150;2023-04-03T06:46:39;8.80;;;2.80;;
72761;SDS011;60886;55.034;73.150;2023-04-03T06:49:41;8.27;;;2.35;;
72761;SDS011;60886;55.034;73.150;2023-04-03T06:52:49;7.53;;;2.20;;
72761;SDS011;60886;55.034;73.150;2023-04-03T06:55:50;11.25;;;2.42;;
72761;SDS011;60886;55.034;73.150;2023-04-03T06:58:56;9.80;;;2.23;;
72761;SDS011;60886;55.034;73.150;2023-04-03T07:01:58;7.35;;;2.40;;
72761;SDS011;60886;55.034;73.150;2023-04-03T07:05:00;7.82;;;2.50;;
72761;SDS011;60886;55.034;73.150;2023-04-03T07:08:02;7.17;;;2.20;;
72761;SDS011;60886;55.034;73.150;2023-04-03T07:11:03;8.18;;;2.10;;
72761;SDS011;60886;55.034;73.150;2023-04-03T07:14:05;9.48;;;2.33;;
72761;SDS011;60886;55.034;73.150;2023-04-03T07:17:08;8.05;;;2.22;;
72761;SDS011;60886;55.034;73.150;2023-04-03T07:20:13;10.27;;;2.70;;
72761;SDS011;60886;55.034;73.150;2023-04-03T07:23:15;6.40;;;2.50;;
72761;SDS011;60886;55.034;73.150;2023-04-03T07:26:17;7.10;;;2.08;;
72761;SDS011;60886;55.034;73.150;2023-04-03T07:29:26;8.73;;;2.13;;
72761;SDS011;60886;55.034;73.150;2023-04-03T07:32:28;6.03;;;1.87;;
72761;SDS011;60886;55.034;73.150;2023-04-03T07:35:30;5.70;;;1.65;;
72761;SDS011;60886;55.034;73.150;2023-04-03T07:38:41;7.35;;;2.05;;
72761;SDS011;60886;55.034;73.150;2023-04-03T07:41:42;7.15;;;2.00;;
72761;SDS011;60886;55.034;73.150;2023-04-03T07:44:54;5.57;;;1.70;;
72761;SDS011;60886;55.034;73.150;2023-04-03T07:47:55;6.90;;;2.00;;
72761;SDS011;60886;55.034;73.150;2023-04-03T07:51:06;10.03;;;2.20;;
72761;SDS011;60886;55.034;73.150;2023-04-03T07:54:08;6.05;;;1.70;;
72761;SDS011;60886;55.034;73.150;2023-04-03T07:57:09;7.47;;;1.97;;
72761;SDS011;60886;55.034;73.150;2023-04-03T08:00:13;7.53;;;1.80;;
72761;SDS011;60886;55.034;73.150;2023-04-03T08:03:15;6.40;;;2.07;;
72761;SDS011;60886;55.034;73.150;2023-04-03T08:06:18;6.68;;;1.60;;
72761;SDS011;60886;55.034;73.150;2023-04-03T08:09:20;6.18;;;1.98;;
72761;SDS011;60886;55.034;73.150;2023-04-03T08:12:21;7.32;;;2.00;;
72761;SDS011;60886;55.034;73.150;2023-04-03T08:15:23;6.90;;;1.87;;
72761;SDS011;60886;55.034;73.150;2023-04-03T08:18:24;6.18;;;1.60;;
72761;SDS011;60886;55.034;73.150;2023-04-03T08:21:26;7.53;;;2.10;;
72761;SDS011;60886;55.034;73.150;2023-04-03T08:24:28;6.65;;;1.92;;
72761;SDS011;60886;55.034;73.150;2023-04-03T08:27:30;8.17;;;2.20;;
72761;SDS011;60886;55.034;73.150;2023-04-03T08:30:31;6.97;;;2.10;;
72761;SDS011;60886;55.034;73.150;2023-04-03T08:33:33;8.45;;;2.08;;
72761;SDS011;60886;55.034;73.150;2023-04-03T08:36:37;7.13;;;2.20;;
72761;SDS011;60886;55.034;73.150;2023-04-03T08:39:38;6.82;;;2.20;;
72761;SDS011;60886;55.034;73.150;2023-04-03T08:46:18;6.00;;;2.00;;
72761;SDS011;60886;55.034;73.150;2023-04-03T08:49:28;6.10;;;2.00;;
72761;SDS011;60886;55.034;73.150;2023-04-03T08:52:43;7.97;;;1.83;;
72761;SDS011;60886;55.034;73.150;2023-04-03T08:55:53;6.97;;;1.70;;
72761;SDS011;60886;55.034;73.150;2023-04-03T08:59:00;7.60;;;1.80;;
72761;SDS011;60886;55.034;73.150;2023-04-03T09:02:23;7.03;;;1.60;;
72761;SDS011;60886;55.034;73.150;2023-04-03T09:05:42;7.50;;;1.60;;
72761;SDS011;60886;55.034;73.150;2023-04-03T09:12:45;7.17;;;1.60;;
72761;SDS011;60886;55.034;73.150;2023-04-03T09:16:19;7.30;;;1.70;;
72761;SDS011;60886;55.034;73.150;2023-04-03T09:19:41;10.40;;;2.03;;
72761;SDS011;60886;55.034;73.150;2023-04-03T09:23:27;6.53;;;1.90;;
72761;SDS011;60886;55.034;73.150;2023-04-03T09:26:45;12.95;;;2.10;;
72761;SDS011;60886;55.034;73.150;2023-04-03T09:29:56;9.63;;;1.85;;
72761;SDS011;60886;55.034;73.150;2023-04-03T09:32:58;8.40;;;1.55;;
72761;SDS011;60886;55.034;73.150;2023-04-03T09:35:59;7.03;;;1.60;;
72761;SDS011;60886;55.034;73.150;2023-04-03T09:39:05;7.50;;;1.50;;
72761;SDS011;60886;55.034;73.150;2023-04-03T09:42:21;7.53;;;1.50;;
72761;SDS011;60886;55.034;73.150;2023-04-03T09:45:25;7.43;;;2.00;;
72761;SDS011;60886;55.034;73.150;2023-04-03T09:48:32;6.43;;;1.52;;
72761;SDS011;60886;55.034;73.150;2023-04-03T09:51:33;8.17;;;1.50;;
72761;SDS011;60886;55.034;73.150;2023-04-03T09:54:36;7.22;;;1.55;;
72761;SDS011;60886;55.034;73.150;2023-04-03T09:57:40;7.43;;;1.50;;
72761;SDS011;60886;55.034;73.150;2023-04-03T10:00:41;6.68;;;1.70;;
72761;SDS011;60886;55.034;73.150;2023-04-03T10:03:43;7.10;;;1.58;;
72761;SDS011;60886;55.034;73.150;2023-04-03T10:06:51;6.68;;;1.80;;
72761;SDS011;60886;55.034;73.150;2023-04-03T10:09:55;5.72;;;1.58;;
72761;SDS011;60886;55.034;73.150;2023-04-03T10:13:05;5.57;;;1.50;;
72761;SDS011;60886;55.034;73.150;2023-04-03T10:16:13;4.70;;;1.30;;
72761;SDS011;60886;55.034;73.150;2023-04-03T10:19:30;7.05;;;1.50;;
72761;SDS011;60886;55.034;73.150;2023-04-03T10:29:49;7.60;;;1.50;;
72761;SDS011;60886;55.034;73.150;2023-04-03T10:33:05;5.80;;;1.50;;
72761;SDS011;60886;55.034;73.150;2023-04-03T10:43:06;6.93;;;1.40;;
72761;SDS011;60886;55.034;73.150;2023-04-03T10:49:56;6.05;;;1.30;;
72761;SDS011;60886;55.034;73.150;2023-04-03T10:56:40;6.13;;;1.60;;
72761;SDS011;60886;55.034;73.150;2023-04-03T10:59:53;5.32;;;1.38;;
72761;SDS011;60886;55.034;73.150;2023-04-03T11:03:07;6.43;;;1.67;;
72761;SDS011;60886;55.034;73.150;2023-04-03T11:06:16;6.83;;;1.60;;
72761;SDS011;60886;55.034;73.150;2023-04-03T11:12:36;5.30;;;1.30;;
72761;SDS011;60886;55.034;73.150;2023-04-03T11:15:43;7.03;;;1.63;;
72761;SDS011;60886;55.034;73.150;2023-04-03T11:22:29;5.78;;;1.50;;
72761;SDS011;60886;55.034;73.150;2023-04-03T11:25:38;6.67;;;1.40;;
72761;SDS011;60886;55.034;73.150;2023-04-03T11:28:43;7.47;;;1.80;;
72761;SDS011;60886;55.034;73.150;2023-04-03T11:31:53;7.63;;;1.93;;
72761;SDS011;60886;55.034;73.150;2023-04-03T11:35:13;7.30;;;2.03;;
72761;SDS011;60886;55.034;73.150;2023-04-03T11:38:26;6.22;;;1.65;;
72761;SDS011;60886;55.034;73.150;2023-04-03T11:41:31;7.13;;;1.53;;
72761;SDS011;60886;55.034;73.150;2023-04-03T11:44:34;6.20;;;1.50;;
72761;SDS011;60886;55.034;73.150;2023-04-03T11:47:47;7.10;;;1.70;;
72761;SDS011;60886;55.034;73.150;2023-04-03T11:50:50;6.10;;;2.03;;
72761;SDS011;60886;55.034;73.150;2023-04-03T11:53:53;5.63;;;1.50;;
72761;SDS011;60886;55.034;73.150;2023-04-03T11:56:55;7.68;;;1.67;;
72761;SDS011;60886;55.034;73.150;2023-04-03T11:59:56;5.43;;;1.35;;
72761;SDS011;60886;55.034;73.150;2023-04-03T12:09:54;7.75;;;1.73;;
72761;SDS011;60886;55.034;73.150;2023-04-03T12:12:58;10.45;;;1.52;;
72761;SDS011;60886;55.034;73.150;2023-04-03T12:19:45;7.95;;;1.90;;
72761;SDS011;60886;55.034;73.150;2023-04-03T12:26:32;7.03;;;1.55;;
72761;SDS011;60886;55.034;73.150;2023-04-03T12:33:17;6.40;;;1.67;;
72761;SDS011;60886;55.034;73.150;2023-04-03T12:40:15;5.88;;;1.50;;
72761;SDS011;60886;55.034;73.150;2023-04-03T12:43:39;5.88;;;1.40;;
72761;SDS011;60886;55.034;73.150;2023-04-03T12:46:51;9.20;;;2.27;;
72761;SDS011;60886;55.034;73.150;2023-04-03T12:49:53;9.02;;;3.17;;
72761;SDS011;60886;55.034;73.150;2023-04-03T12:53:01;11.57;;;3.47;;
72761;SDS011;60886;55.034;73.150;2023-04-03T12:56:25;10.73;;;3.10;;
72761;SDS011;60886;55.034;73.150;2023-04-03T12:59:31;11.52;;;2.70;;
72761;SDS011;60886;55.034;73.150;2023-04-03T13:02:33;8.93;;;2.70;;
72761;SDS011;60886;55.034;73.150;2023-04-03T13:05:40;8.00;;;2.67;;
72761;SDS011;60886;55.034;73.150;2023-04-03T13:08:49;9.23;;;2.60;;
72761;SDS011;60886;55.034;73.150;2023-04-03T13:12:16;7.43;;;2.40;;
72761;SDS011;60886;55.034;73.150;2023-04-03T13:15:21;8.10;;;2.70;;
72761;SDS011;60886;55.034;73.150;2023-04-03T13:18:33;9.30;;;3.58;;
72761;SDS011;60886;55.034;73.150;2023-04-03T13:21:35;11.50;;;3.50;;
72761;SDS011;60886;55.034;73.150;2023-04-03T13:24:37;11.93;;;3.30;;
72761;SDS011;60886;55.034;73.150;2023-04-03T13:27:46;10.97;;;3.53;;
72761;SDS011;60886;55.034;73.150;2023-04-03T13:30:55;12.18;;;4.20;;
72761;SDS011;60886;55.034;73.150;2023-04-03T13:34:12;13.03;;;4.27;;
72761;SDS011;60886;55.034;73.150;2023-04-03T13:37:32;14.67;;;4.30;;
72761;SDS011;60886;55.034;73.150;2023-04-03T13:40:46;11.48;;;3.45;;
72761;SDS011;60886;55.034;73.150;2023-04-03T13:47:24;7.00;;;2.20;;
72761;SDS011;60886;55.034;73.150;2023-04-03T13:50:30;8.82;;;3.55;;
72761;SDS011;60886;55.034;73.150;2023-04-03T13:53:33;11.23;;;4.10;;
72761;SDS011;60886;55.034;73.150;2023-04-03T13:56:55;10.98;;;3.25;;
72761;SDS011;60886;55.034;73.150;2023-04-03T14:00:47;13.45;;;3.30;;
72761;SDS011;60886;55.034;73.150;2023-04-03T14:03:56;10.85;;;3.00;;
72761;SDS011;60886;55.034;73.150;2023-04-03T14:06:59;14.32;;;3.38;;
72761;SDS011;60886;55.034;73.150;2023-04-03T14:10:00;17.07;;;3.77;;
72761;SDS011;60886;55.034;73.150;2023-04-03T14:13:02;16.43;;;4.67;;
72761;SDS011;60886;55.034;73.150;2023-04-03T14:16:04;18.27;;;5.53;;
72761;SDS011;60886;55.034;73.150;2023-04-03T14:19:05;21.83;;;5.63;;
72761;SDS011;60886;55.034;73.150;2023-04-03T14:22:21;21.63;;;5.70;;
72761;SDS011;60886;55.034;73.150;2023-04-03T14:25:24;20.17;;;5.32;;
72761;SDS011;60886;55.034;73.150;2023-04-03T14:28:31;21.08;;;5.93;;
72761;SDS011;60886;55.034;73.150;2023-04-03T14:31:33;16.97;;;6.17;;
72761;SDS011;60886;55.034;73.150;2023-04-03T14:34:35;19.10;;;7.38;;
72761;SDS011;60886;55.034;73.150;2023-04-03T14:37:36;28.52;;;9.02;;
72761;SDS011;60886;55.034;73.150;2023-04-03T14:40:38;28.80;;;9.40;;
72761;SDS011;60886;55.034;73.150;2023-04-03T14:43:50;29.83;;;9.00;;
72761;SDS011;60886;55.034;73.150;2023-04-03T14:46:52;24.00;;;7.63;;
72761;SDS011;60886;55.034;73.150;2023-04-03T14:49:53;25.33;;;7.80;;
72761;SDS011;60886;55.034;73.150;2023-04-03T14:52:57;27.87;;;10.73;;
72761;SDS011;60886;55.034;73.150;2023-04-03T14:55:59;22.92;;;8.88;;
72761;SDS011;60886;55.034;73.150;2023-04-03T14:59:01;22.40;;;8.00;;
72761;SDS011;60886;55.034;73.150;2023-04-03T15:02:25;23.40;;;8.10;;
72761;SDS011;60886;55.034;73.150;2023-04-03T15:05:32;24.67;;;8.27;;
72761;SDS011;60886;55.034;73.150;2023-04-03T15:08:46;29.98;;;12.07;;
72761;SDS011;60886;55.034;73.150;2023-04-03T15:11:59;28.47;;;11.60;;
72761;SDS011;60886;55.034;73.150;2023-04-03T15:15:00;26.73;;;10.65;;
72761;SDS011;60886;55.034;73.150;2023-04-03T15:18:06;28.45;;;9.88;;
72761;SDS011;60886;55.034;73.150;2023-04-03T15:21:11;25.20;;;9.15;;
72761;SDS011;60886;55.034;73.150;2023-04-03T15:24:13;22.30;;;7.80;;
72761;SDS011;60886;55.034;73.150;2023-04-03T15:27:18;22.95;;;8.35;;
72761;SDS011;60886;55.034;73.150;2023-04-03T15:30:25;21.63;;;7.97;;
72761;SDS011;60886;55.034;73.150;2023-04-03T15:33:31;23.47;;;7.67;;
72761;SDS011;60886;55.034;73.150;2023-04-03T15:36:34;24.48;;;7.65;;
72761;SDS011;60886;55.034;73.150;2023-04-03T15:39:36;25.50;;;7.90;;
72761;SDS011;60886;55.034;73.150;2023-04-03T15:42:37;21.20;;;8.10;;
72761;SDS011;60886;55.034;73.150;2023-04-03T15:45:39;22.83;;;7.50;;
72761;SDS011;60886;55.034;73.150;2023-04-03T15:48:41;23.55;;;7.78;;
72761;SDS011;60886;55.034;73.150;2023-04-03T15:51:42;20.67;;;7.28;;
72761;SDS011;60886;55.034;73.150;2023-04-03T15:54:44;24.10;;;8.17;;
72761;SDS011;60886;55.034;73.150;2023-04-03T15:57:45;22.50;;;8.10;;
72761;SDS011;60886;55.034;73.150;2023-04-03T16:00:52;25.00;;;8.67;;
72761;SDS011;60886;55.034;73.150;2023-04-03T16:03:53;25.35;;;9.93;;
72761;SDS011;60886;55.034;73.150;2023-04-03T16:06:55;25.63;;;10.43;;
72761;SDS011;60886;55.034;73.150;2023-04-03T16:09:56;24.63;;;10.70;;
72761;SDS011;60886;55.034;73.150;2023-04-03T16:12:58;28.98;;;9.93;;
72761;SDS011;60886;55.034;73.150;2023-04-03T16:16:09;38.33;;;12.83;;
72761;SDS011;60886;55.034;73.150;2023-04-03T16:19:11;32.72;;;11.40;;
72761;SDS011;60886;55.034;73.150;2023-04-03T16:22:13;39.20;;;13.30;;
72761;SDS011;60886;55.034;73.150;2023-04-03T16:25:15;38.88;;;16.00;;
72761;SDS011;60886;55.034;73.150;2023-04-03T16:28:16;44.67;;;17.17;;
72761;SDS011;60886;55.034;73.150;2023-04-03T16:31:19;39.67;;;16.10;;
72761;SDS011;60886;55.034;73.150;2023-04-03T16:34:21;45.05;;;16.95;;
72761;SDS011;60886;55.034;73.150;2023-04-03T16:37:23;43.45;;;17.17;;
72761;SDS011;60886;55.034;73.150;2023-04-03T16:40:29;44.55;;;16.00;;
72761;SDS011;60886;55.034;73.150;2023-04-03T16:43:31;41.33;;;15.27;;
72761;SDS011;60886;55.034;73.150;2023-04-03T16:46:33;38.00;;;14.68;;
72761;SDS011;60886;55.034;73.150;2023-04-03T16:49:35;42.63;;;14.85;;
72761;SDS011;60886;55.034;73.150;2023-04-03T16:52:46;45.80;;;16.57;;
72761;SDS011;60886;55.034;73.150;2023-04-03T16:55:48;45.60;;;17.60;;
72761;SDS011;60886;55.034;73.150;2023-04-03T16:58:50;42.60;;;16.45;;
72761;SDS011;60886;55.034;73.150;2023-04-03T17:01:51;39.27;;;15.63;;
72761;SDS011;60886;55.034;73.150;2023-04-03T17:04:53;38.00;;;15.27;;
72761;SDS011;60886;55.034;73.150;2023-04-03T17:07:59;41.43;;;16.27;;
72761;SDS011;60886;55.034;73.150;2023-04-03T17:11:13;39.90;;;15.40;;
72761;SDS011;60886;55.034;73.150;2023-04-03T17:14:14;42.58;;;16.05;;
72761;SDS011;60886;55.034;73.150;2023-04-03T17:17:18;41.67;;;16.35;;
72761;SDS011;60886;55.034;73.150;2023-04-03T17:20:30;41.97;;;15.67;;
72761;SDS011;60886;55.034;73.150;2023-04-03T17:23:34;42.05;;;16.08;;
72761;SDS011;60886;55.034;73.150;2023-04-03T17:26:39;41.40;;;15.37;;
72761;SDS011;60886;55.034;73.150;2023-04-03T17:29:41;34.70;;;14.27;;
72761;SDS011;60886;55.034;73.150;2023-04-03T17:32:48;39.50;;;14.50;;
72761;SDS011;60886;55.034;73.150;2023-04-03T17:35:50;37.63;;;13.20;;
72761;SDS011;60886;55.034;73.150;2023-04-03T17:38:52;36.03;;;11.68;;
72761;SDS011;60886;55.034;73.150;2023-04-03T17:41:53;32.83;;;12.38;;
72761;SDS011;60886;55.034;73.150;2023-04-03T17:44:55;32.97;;;11.93;;
72761;SDS011;60886;55.034;73.150;2023-04-03T17:47:56;34.17;;;12.73;;
72761;SDS011;60886;55.034;73.150;2023-04-03T17:51:04;35.03;;;12.40;;
72761;SDS011;60886;55.034;73.150;2023-04-03T17:54:10;43.70;;;14.97;;
72761;SDS011;60886;55.034;73.150;2023-04-03T17:57:12;36.95;;;14.68;;
72761;SDS011;60886;55.034;73.150;2023-04-03T18:00:23;35.57;;;14.17;;
72761;SDS011;60886;55.034;73.150;2023-04-03T18:03:24;37.30;;;15.10;;
72761;SDS011;60886;55.034;73.150;2023-04-03T18:06:27;37.30;;;14.38;;
72761;SDS011;60886;55.034;73.150;2023-04-03T18:09:31;39.63;;;13.17;;
72761;SDS011;60886;55.034;73.150;2023-04-03T18:12:34;33.17;;;13.23;;
72761;SDS011;60886;55.034;73.150;2023-04-03T18:15:37;34.27;;;12.20;;
72761;SDS011;60886;55.034;73.150;2023-04-03T18:18:45;34.78;;;12.88;;
72761;SDS011;60886;55.034;73.150;2023-04-03T18:21:52;31.25;;;12.40;;
72761;SDS011;60886;55.034;73.150;2023-04-03T18:24:56;29.13;;;11.80;;
72761;SDS011;60886;55.034;73.150;2023-04-03T18:27:58;34.40;;;12.90;;
72761;SDS011;60886;55.034;73.150;2023-04-03T18:31:06;32.47;;;11.90;;
72761;SDS011;60886;55.034;73.150;2023-04-03T18:34:20;34.58;;;12.05;;
72761;SDS011;60886;55.034;73.150;2023-04-03T18:37:22;36.03;;;11.97;;
72761;SDS011;60886;55.034;73.150;2023-04-03T18:40:24;30.90;;;11.88;;
72761;SDS011;60886;55.034;73.150;2023-04-03T18:43:26;35.70;;;12.32;;
72761;SDS011;60886;55.034;73.150;2023-04-03T18:46:34;30.50;;;12.02;;
72761;SDS011;60886;55.034;73.150;2023-04-03T18:49:47;34.72;;;13.25;;
72761;SDS011;60886;55.034;73.150;2023-04-03T18:52:48;35.50;;;12.83;;
72761;SDS011;60886;55.034;73.150;2023-04-03T18:55:50;37.10;;;14.00;;
72761;SDS011;60886;55.034;73.150;2023-04-03T18:58:52;36.60;;;13.48;;
72761;SDS011;60886;55.034;73.150;2023-04-03T19:01:58;33.03;;;12.90;;
72761;SDS011;60886;55.034;73.150;2023-04-03T19:05:13;26.98;;;10.07;;
72761;SDS011;60886;55.034;73.150;2023-04-03T19:08:16;29.95;;;11.13;;
72761;SDS011;60886;55.034;73.150;2023-04-03T19:11:22;26.85;;;11.52;;
72761;SDS011;60886;55.034;73.150;2023-04-03T19:14:24;34.58;;;13.32;;
72761;SDS011;60886;55.034;73.150;2023-04-03T19:17:31;31.40;;;13.45;;
72761;SDS011;60886;55.034;73.150;2023-04-03T19:20:42;26.17;;;9.53;;